createdAt,value
2022-08-28T00:01:37.344Z,18.55
2022-08-28T00:04:04.317Z,18.49
2022-08-28T00:06:30.776Z,18.55
2022-08-28T00:08:57.388Z,18.55
2022-08-28T00:11:24.068Z,18.57
2022-08-28T00:13:50.932Z,18.60
2022-08-28T00:16:18.813Z,18.57
2022-08-28T00:18:47.039Z,18.61
2022-08-28T00:21:14.585Z,18.48
2022-08-28T00:23:42.952Z,18.50
2022-08-28T00:26:10.701Z,18.47
2022-08-28T00:28:37.199Z,18.36
2022-08-28T00:31:05.198Z,18.45
2022-08-28T00:33:33.758Z,18.44
2022-08-28T00:36:01.056Z,18.45
2022-08-28T00:38:28.434Z,18.48
2022-08-28T00:40:59.289Z,18.30
2022-08-28T00:43:39.959Z,18.11
2022-08-28T00:46:16.405Z,18.15
2022-08-28T00:48:43.276Z,18.07
2022-08-28T00:51:28.763Z,17.99
2022-08-28T00:53:58.967Z,17.99
2022-08-28T00:56:26.904Z,18.01
2022-08-28T00:58:56.194Z,18.02
2022-08-28T01:01:22.721Z,17.96
2022-08-28T01:03:49.141Z,17.93
2022-08-28T01:06:17.162Z,17.88
2022-08-28T01:08:46.200Z,17.84
2022-08-28T01:11:18.688Z,17.84
2022-08-28T01:13:48.651Z,17.84
2022-08-28T01:16:19.382Z,17.81
2022-08-28T01:18:46.422Z,17.80
2022-08-28T01:21:26.078Z,17.68
2022-08-28T01:23:58.706Z,17.68
2022-08-28T01:26:27.775Z,17.69
2022-08-28T01:28:55.260Z,17.65
2022-08-28T01:31:21.807Z,17.66
2022-08-28T01:33:48.771Z,17.65
2022-08-28T01:36:15.737Z,17.73
2022-08-28T01:38:44.028Z,17.63
2022-08-28T01:41:12.207Z,17.65
2022-08-28T01:43:39.043Z,17.74
2022-08-28T01:46:05.875Z,17.76
2022-08-28T01:48:35.915Z,17.75
2022-08-28T01:51:03.289Z,17.75
2022-08-28T01:53:33.066Z,17.75
2022-08-28T01:56:01.708Z,17.85
2022-08-28T01:58:28.871Z,17.65
2022-08-28T02:00:57.442Z,17.70
2022-08-28T02:03:24.332Z,17.68
2022-08-28T02:05:50.958Z,17.62
2022-08-28T02:08:18.237Z,17.55
2022-08-28T02:10:45.072Z,17.64
2022-08-28T02:13:12.103Z,17.62
2022-08-28T02:15:39.986Z,17.63
2022-08-28T02:18:06.795Z,17.61
2022-08-28T02:20:33.969Z,17.70
2022-08-28T02:23:01.050Z,17.68
2022-08-28T02:25:28.314Z,17.80
2022-08-28T02:27:55.179Z,17.84
2022-08-28T02:30:21.890Z,17.84
2022-08-28T02:32:48.323Z,17.90
2022-08-28T02:35:16.874Z,17.97
2022-08-28T02:37:44.455Z,17.96
2022-08-28T02:40:16.555Z,17.87
2022-08-28T02:42:43.190Z,17.99
2022-08-28T02:45:11.890Z,18.10
2022-08-28T02:47:44.000Z,18.15
2022-08-28T02:50:13.932Z,18.28
2022-08-28T02:52:41.777Z,18.24
2022-08-28T02:55:10.885Z,18.21
2022-08-28T02:57:37.417Z,18.19
2022-08-28T03:00:13.656Z,18.04
2022-08-28T03:02:41.271Z,18.10
2022-08-28T03:05:09.405Z,18.24
2022-08-28T03:07:35.902Z,18.21
2022-08-28T03:10:03.382Z,18.22
2022-08-28T03:12:29.864Z,18.26
2022-08-28T03:14:57.019Z,18.10
2022-08-28T03:17:23.571Z,18.06
2022-08-28T03:19:50.303Z,18.04
2022-08-28T03:22:17.946Z,18.02
2022-08-28T03:24:44.995Z,18.04
2022-08-28T03:27:11.703Z,18.00
2022-08-28T03:29:38.390Z,17.95
2022-08-28T03:32:05.065Z,17.97
2022-08-28T03:34:31.506Z,17.91
2022-08-28T03:36:58.175Z,17.72
2022-08-28T03:39:24.622Z,17.66
2022-08-28T03:41:51.490Z,17.72
2022-08-28T03:44:17.953Z,17.55
2022-08-28T03:46:44.382Z,17.42
2022-08-28T03:49:11.234Z,17.30
2022-08-28T03:51:38.362Z,17.20
2022-08-28T03:54:05.217Z,17.43
2022-08-28T03:56:31.737Z,17.41
2022-08-28T03:59:00.880Z,17.16
2022-08-28T04:01:28.054Z,17.07
2022-08-28T04:03:54.668Z,17.04
2022-08-28T04:06:21.242Z,17.06
2022-08-28T04:08:47.851Z,17.00
2022-08-28T04:11:14.493Z,16.97
2022-08-28T04:13:41.927Z,16.93
2022-08-28T04:16:11.597Z,16.95
2022-08-28T04:18:40.287Z,17.03
2022-08-28T04:21:10.154Z,16.94
2022-08-28T04:23:38.195Z,16.95
2022-08-28T04:26:08.741Z,16.99
2022-08-28T04:28:35.481Z,16.99
2022-08-28T04:31:02.859Z,17.04
2022-08-28T04:33:29.719Z,16.93
2022-08-28T04:35:56.537Z,16.88
2022-08-28T04:38:23.288Z,16.92
2022-08-28T04:40:49.782Z,16.97
2022-08-28T04:43:16.214Z,17.04
2022-08-28T04:45:44.416Z,17.00
2022-08-28T04:48:13.578Z,17.04
2022-08-28T04:50:45.804Z,17.06
2022-08-28T04:53:12.609Z,17.18
2022-08-28T04:55:54.676Z,17.06
2022-08-28T04:58:23.830Z,17.16
2022-08-28T05:00:52.057Z,17.13
2022-08-28T05:03:18.528Z,17.31
2022-08-28T05:05:47.136Z,17.33
2022-08-28T05:08:15.510Z,17.45
2022-08-28T05:10:42.506Z,17.54
2022-08-28T05:13:10.710Z,17.59
2022-08-28T05:15:41.025Z,17.69
2022-08-28T05:18:07.697Z,17.78
2022-08-28T05:20:38.497Z,17.76
2022-08-28T05:23:06.274Z,17.69
2022-08-28T05:25:41.877Z,17.68
2022-08-28T05:28:12.044Z,17.67
2022-08-28T05:30:40.299Z,17.68
2022-08-28T05:33:08.003Z,17.57
2022-08-28T05:35:37.454Z,17.69
2022-08-28T05:38:04.653Z,17.83
2022-08-28T05:40:31.287Z,17.82
2022-08-28T05:42:58.010Z,17.93
2022-08-28T05:45:24.611Z,18.03
2022-08-28T05:47:52.126Z,18.17
2022-08-28T05:50:18.947Z,18.22
2022-08-28T05:52:45.398Z,18.24
2022-08-28T05:55:13.177Z,18.26
2022-08-28T05:57:40.509Z,18.31
2022-08-28T06:00:10.175Z,18.35
2022-08-28T06:02:36.605Z,18.38
2022-08-28T06:05:03.324Z,18.31
2022-08-28T06:07:29.965Z,18.49
2022-08-28T06:09:56.984Z,18.62
2022-08-28T06:12:23.658Z,18.52
2022-08-28T06:14:50.112Z,18.67
2022-08-28T06:17:16.899Z,18.86
2022-08-28T06:19:49.946Z,18.79
2022-08-28T06:22:16.384Z,18.89
2022-08-28T06:24:42.877Z,19.03
2022-08-28T06:27:09.394Z,19.06
2022-08-28T06:29:35.810Z,19.17
2022-08-28T06:32:04.783Z,19.24
2022-08-28T06:34:31.457Z,19.15
2022-08-28T06:36:57.950Z,19.35
2022-08-28T06:39:24.428Z,19.48
2022-08-28T06:41:51.031Z,19.69
2022-08-28T06:44:22.458Z,19.84
2022-08-28T06:46:51.124Z,20.08
2022-08-28T06:49:17.739Z,20.22
2022-08-28T06:51:44.190Z,20.56
2022-08-28T06:54:10.747Z,20.91
2022-08-28T06:56:37.286Z,20.98
2022-08-28T06:59:05.089Z,20.90
2022-08-28T07:01:34.833Z,20.75
2022-08-28T07:04:07.377Z,20.68
2022-08-28T07:06:36.947Z,20.75
2022-08-28T07:09:05.897Z,21.15
2022-08-28T07:11:33.805Z,21.47
2022-08-28T07:14:01.168Z,21.68
2022-08-28T07:16:30.554Z,21.86
2022-08-28T07:18:57.969Z,22.12
2022-08-28T07:21:24.915Z,22.29
2022-08-28T07:23:51.416Z,22.14
2022-08-28T07:26:22.938Z,22.01
2022-08-28T07:28:50.501Z,22.23
2022-08-28T07:31:20.208Z,22.17
2022-08-28T07:33:46.982Z,22.17
2022-08-28T07:36:29.400Z,22.38
2022-08-28T07:38:57.989Z,22.31
2022-08-28T07:41:30.052Z,22.42
2022-08-28T07:44:15.692Z,22.52
2022-08-28T07:46:42.447Z,22.59
2022-08-28T07:49:09.410Z,22.63
2022-08-28T07:51:36.366Z,22.40
2022-08-28T07:54:04.272Z,22.80
2022-08-28T07:56:31.686Z,23.17
2022-08-28T07:58:59.039Z,23.20
2022-08-28T08:01:27.155Z,23.28
2022-08-28T08:03:55.908Z,23.30
2022-08-28T08:06:33.837Z,23.68
2022-08-28T08:09:01.718Z,23.76
2022-08-28T08:11:28.164Z,23.58
2022-08-28T08:14:03.818Z,23.72
2022-08-28T08:16:34.929Z,23.75
2022-08-28T08:19:01.904Z,24.07
2022-08-28T08:21:30.502Z,24.03
2022-08-28T08:23:58.041Z,23.87
2022-08-28T08:26:26.109Z,23.69
2022-08-28T08:28:52.584Z,23.32
2022-08-28T08:31:27.408Z,23.59
2022-08-28T08:33:56.820Z,23.71
2022-08-28T08:36:25.097Z,23.59
2022-08-28T08:38:59.147Z,23.86
2022-08-28T08:41:51.124Z,23.93
2022-08-28T08:44:28.008Z,24.06
2022-08-28T08:47:14.834Z,24.24
2022-08-28T08:50:03.338Z,24.64
2022-08-28T08:52:32.857Z,23.87
2022-08-28T08:55:15.716Z,24.24
2022-08-28T08:57:42.841Z,24.52
2022-08-28T09:00:16.321Z,23.60
2022-08-28T09:03:07.545Z,23.58
2022-08-28T09:05:52.375Z,23.08
2022-08-28T09:08:27.835Z,23.27
2022-08-28T09:11:04.588Z,23.14
2022-08-28T09:14:07.818Z,23.32
2022-08-28T09:16:40.092Z,23.52
2022-08-28T09:19:07.433Z,23.30
2022-08-28T09:21:35.830Z,23.44
2022-08-28T09:24:05.841Z,24.08
2022-08-28T09:26:37.647Z,24.60
2022-08-28T09:29:07.543Z,24.38
2022-08-28T09:31:37.307Z,24.54
2022-08-28T09:34:19.396Z,25.06
2022-08-28T09:36:46.047Z,25.76
2022-08-28T09:39:19.888Z,25.73
2022-08-28T09:42:10.071Z,24.79
2022-08-28T09:44:56.330Z,24.33
2022-08-28T09:47:57.631Z,23.57
2022-08-28T09:51:03.270Z,23.18
2022-08-28T09:53:32.231Z,23.50
2022-08-28T09:56:03.274Z,23.61
2022-08-28T09:58:37.357Z,24.09
2022-08-28T10:01:33.011Z,24.79
2022-08-28T10:04:28.428Z,24.78
2022-08-28T10:06:57.126Z,24.92
2022-08-28T10:10:02.392Z,25.03
2022-08-28T10:12:46.687Z,24.74
2022-08-28T10:15:22.754Z,23.99
2022-08-28T10:18:11.071Z,24.09
2022-08-28T10:20:37.486Z,24.25
2022-08-28T10:23:17.040Z,24.72
2022-08-28T10:25:50.806Z,25.34
2022-08-28T10:28:42.908Z,24.85
2022-08-28T10:31:33.013Z,24.33
2022-08-28T10:34:14.360Z,24.24
2022-08-28T10:36:41.970Z,24.23
2022-08-28T10:39:29.447Z,24.32
2022-08-28T10:41:59.646Z,24.62
2022-08-28T10:45:03.534Z,24.87
2022-08-28T10:47:32.950Z,25.04
2022-08-28T10:50:03.134Z,25.11
2022-08-28T10:52:38.984Z,25.16
2022-08-28T10:55:13.848Z,25.76
2022-08-28T10:57:53.892Z,26.11
2022-08-28T11:00:22.237Z,26.48
2022-08-28T11:02:51.804Z,25.59
2022-08-28T11:05:31.923Z,25.25
2022-08-28T11:08:07.509Z,25.11
2022-08-28T11:10:34.901Z,24.88
2022-08-28T11:13:02.894Z,25.11
2022-08-28T11:15:36.417Z,25.15
2022-08-28T11:18:25.659Z,24.99
2022-08-28T11:21:24.817Z,24.68
2022-08-28T11:24:04.250Z,25.41
2022-08-28T11:26:41.062Z,25.93
2022-08-28T11:29:08.053Z,25.75
2022-08-28T11:31:38.251Z,25.79
2022-08-28T11:34:05.613Z,26.03
2022-08-28T11:36:32.570Z,26.41
2022-08-28T11:39:00.952Z,26.17
2022-08-28T11:41:36.389Z,25.58
2022-08-28T11:44:14.989Z,24.43
2022-08-28T11:46:43.380Z,23.94
2022-08-28T11:49:31.556Z,24.01
2022-08-28T11:52:22.837Z,24.38
2022-08-28T11:55:01.937Z,24.56
2022-08-28T11:57:48.803Z,24.85
2022-08-28T12:00:36.517Z,24.92
2022-08-28T12:03:34.797Z,24.91
2022-08-28T12:06:01.549Z,24.23
2022-08-28T12:08:59.175Z,24.31
2022-08-28T12:11:48.370Z,24.62
2022-08-28T12:14:30.010Z,25.22
2022-08-28T12:16:59.374Z,24.76
2022-08-28T12:19:55.334Z,25.46
2022-08-28T12:22:27.106Z,25.37
2022-08-28T12:24:59.641Z,25.45
2022-08-28T12:27:26.455Z,25.58
2022-08-28T12:30:00.457Z,26.13
2022-08-28T12:32:46.676Z,26.32
2022-08-28T12:35:19.633Z,26.10
2022-08-28T12:38:00.069Z,25.52
2022-08-28T12:40:28.874Z,25.01
2022-08-28T12:43:04.817Z,24.72
2022-08-28T12:45:31.168Z,24.26
2022-08-28T12:48:00.370Z,24.48
2022-08-28T12:50:30.093Z,24.29
2022-08-28T12:53:00.124Z,24.86
2022-08-28T12:55:26.888Z,25.24
2022-08-28T12:57:53.732Z,25.05
2022-08-28T13:00:26.149Z,25.47
2022-08-28T13:02:54.609Z,25.48
2022-08-28T13:05:30.059Z,25.28
2022-08-28T13:07:57.578Z,25.16
2022-08-28T13:10:36.364Z,25.21
2022-08-28T13:13:05.783Z,25.11
2022-08-28T13:16:08.942Z,24.95
2022-08-28T13:18:52.655Z,25.58
2022-08-28T13:21:32.918Z,25.72
2022-08-28T13:24:23.574Z,25.39
2022-08-28T13:27:15.749Z,25.89
2022-08-28T13:29:59.779Z,25.68
2022-08-28T13:32:28.931Z,25.60
2022-08-28T13:35:10.667Z,25.36
2022-08-28T13:37:49.120Z,25.21
2022-08-28T13:40:45.995Z,24.96
2022-08-28T13:43:08.194Z,25.83
2022-08-28T13:45:43.528Z,26.30
2022-08-28T13:48:18.083Z,25.99
2022-08-28T13:50:47.361Z,25.34
2022-08-28T13:53:15.410Z,25.76
2022-08-28T13:55:41.887Z,25.78
2022-08-28T13:58:08.396Z,26.31
2022-08-28T14:00:37.136Z,26.24
2022-08-28T14:03:22.215Z,26.16
2022-08-28T14:05:48.621Z,25.84
2022-08-28T14:08:15.057Z,25.08
2022-08-28T14:10:42.056Z,25.07
2022-08-28T14:13:08.593Z,25.17
2022-08-28T14:15:35.324Z,25.05
2022-08-28T14:18:01.785Z,23.99
2022-08-28T14:20:28.960Z,24.49
2022-08-28T14:22:55.516Z,24.56
2022-08-28T14:25:21.973Z,24.60
2022-08-28T14:27:48.649Z,24.73
2022-08-28T14:30:15.340Z,24.98
2022-08-28T14:32:41.849Z,25.04
2022-08-28T14:35:08.853Z,25.32
2022-08-28T14:37:35.413Z,25.47
2022-08-28T14:40:02.015Z,25.83
2022-08-28T14:42:28.641Z,25.99
2022-08-28T14:44:55.158Z,26.07
2022-08-28T14:47:21.653Z,25.89
2022-08-28T14:49:48.488Z,26.00
2022-08-28T14:52:15.128Z,25.41
2022-08-28T14:54:41.701Z,25.05
2022-08-28T14:57:08.250Z,25.72
2022-08-28T14:59:34.714Z,26.01
2022-08-28T15:02:02.176Z,26.35
2022-08-28T15:04:34.501Z,26.52
2022-08-28T15:07:02.725Z,25.19
2022-08-28T15:09:29.310Z,25.75
2022-08-28T15:11:56.115Z,26.30
2022-08-28T15:14:22.653Z,26.56
2022-08-28T15:16:49.484Z,26.69
2022-08-28T15:19:17.979Z,26.46
2022-08-28T15:21:50.165Z,25.90
2022-08-28T15:24:18.304Z,24.26
2022-08-28T15:26:44.973Z,23.60
2022-08-28T15:29:12.038Z,23.32
2022-08-28T15:31:42.264Z,23.34
2022-08-28T15:34:13.648Z,23.67
2022-08-28T15:36:41.279Z,23.85
2022-08-28T15:39:27.339Z,23.84
2022-08-28T15:41:54.520Z,24.03
2022-08-28T15:44:21.009Z,23.57
2022-08-28T15:46:51.723Z,23.77
2022-08-28T15:49:20.469Z,23.83
2022-08-28T15:51:50.407Z,23.74
2022-08-28T15:54:17.455Z,23.74
2022-08-28T15:56:44.117Z,23.72
2022-08-28T15:59:11.232Z,23.64
2022-08-28T16:01:38.479Z,23.43
2022-08-28T16:04:06.565Z,23.17
2022-08-28T16:06:35.168Z,22.98
2022-08-28T16:09:02.128Z,23.11
2022-08-28T16:11:28.551Z,23.31
2022-08-28T16:14:00.526Z,23.50
2022-08-28T16:16:27.466Z,23.00
2022-08-28T16:18:55.116Z,23.05
2022-08-28T16:21:21.720Z,23.13
2022-08-28T16:23:48.886Z,22.66
2022-08-28T16:26:15.885Z,22.67
2022-08-28T16:28:43.674Z,22.67
2022-08-28T16:31:18.884Z,22.81
2022-08-28T16:33:48.112Z,22.88
2022-08-28T16:36:14.934Z,23.05
2022-08-28T16:38:43.107Z,23.16
2022-08-28T16:41:22.015Z,23.24
2022-08-28T16:43:49.224Z,23.42
2022-08-28T16:46:19.273Z,23.12
2022-08-28T16:48:46.466Z,23.07
2022-08-28T16:51:13.549Z,22.82
2022-08-28T16:53:42.985Z,23.23
2022-08-28T16:56:14.127Z,23.17
2022-08-28T16:58:41.515Z,22.41
2022-08-28T17:01:08.615Z,22.65
2022-08-28T17:03:38.021Z,22.68
2022-08-28T17:06:13.891Z,22.94
2022-08-28T17:08:40.543Z,22.79
2022-08-28T17:11:07.514Z,22.53
2022-08-28T17:13:34.935Z,22.56
2022-08-28T17:16:02.514Z,22.68
2022-08-28T17:18:29.289Z,22.59
2022-08-28T17:21:14.276Z,22.69
2022-08-28T17:23:41.227Z,22.09
2022-08-28T17:26:08.125Z,22.29
2022-08-28T17:28:35.157Z,22.44
2022-08-28T17:31:01.665Z,22.27
2022-08-28T17:33:28.572Z,22.67
2022-08-28T17:35:55.686Z,22.40
2022-08-28T17:38:22.272Z,22.25
2022-08-28T17:40:48.726Z,22.34
2022-08-28T17:43:15.226Z,22.23
2022-08-28T17:45:41.671Z,22.25
2022-08-28T17:48:08.311Z,22.32
2022-08-28T17:50:34.752Z,22.21
2022-08-28T17:53:01.225Z,22.13
2022-08-28T17:55:27.685Z,22.19
2022-08-28T17:57:55.000Z,22.06
2022-08-28T18:00:21.620Z,21.93
2022-08-28T18:02:51.475Z,21.95
2022-08-28T18:05:18.572Z,21.89
2022-08-28T18:07:45.058Z,22.10
2022-08-28T18:10:11.954Z,22.08
2022-08-28T18:12:39.994Z,22.09
2022-08-28T18:15:09.238Z,22.21
2022-08-28T18:17:37.821Z,21.88
2022-08-28T18:20:05.996Z,21.98
2022-08-28T18:22:32.421Z,21.71
2022-08-28T18:24:58.941Z,21.68
2022-08-28T18:27:27.797Z,21.66
2022-08-28T18:29:54.270Z,21.61
2022-08-28T18:32:20.831Z,21.79
2022-08-28T18:34:47.322Z,21.77
2022-08-28T18:37:13.756Z,21.82
2022-08-28T18:39:40.286Z,21.45
2022-08-28T18:42:09.473Z,21.33
2022-08-28T18:44:35.926Z,21.53
2022-08-28T18:47:02.357Z,21.55
2022-08-28T18:49:28.812Z,21.71
2022-08-28T18:51:55.416Z,21.71
2022-08-28T18:54:23.010Z,21.50
2022-08-28T18:56:50.424Z,21.50
2022-08-28T18:59:17.389Z,21.38
2022-08-28T19:01:44.032Z,21.47
2022-08-28T19:04:10.578Z,21.27
2022-08-28T19:06:37.068Z,21.20
2022-08-28T19:09:05.604Z,21.31
2022-08-28T19:11:32.221Z,21.14
2022-08-28T19:13:59.520Z,21.25
2022-08-28T19:16:31.826Z,21.07
2022-08-28T19:18:58.352Z,21.32
2022-08-28T19:21:24.829Z,21.47
2022-08-28T19:23:55.758Z,21.47
2022-08-28T19:26:28.887Z,21.53
2022-08-28T19:28:55.858Z,21.49
2022-08-28T19:31:23.050Z,21.65
2022-08-28T19:33:49.610Z,21.78
2022-08-28T19:36:16.254Z,21.78
2022-08-28T19:38:43.217Z,21.82
2022-08-28T19:41:11.069Z,21.66
2022-08-28T19:43:42.863Z,21.76
2022-08-28T19:46:14.467Z,21.73
2022-08-28T19:48:47.754Z,21.63
2022-08-28T19:51:17.286Z,21.71
2022-08-28T19:53:44.357Z,21.71
2022-08-28T19:56:10.818Z,21.74
2022-08-28T19:58:37.332Z,21.39
2022-08-28T20:01:04.228Z,21.43
2022-08-28T20:03:30.913Z,21.44
2022-08-28T20:05:57.517Z,21.48
2022-08-28T20:08:24.130Z,21.39
2022-08-28T20:10:50.698Z,21.41
2022-08-28T20:13:17.480Z,21.59
2022-08-28T20:15:45.639Z,21.57
2022-08-28T20:18:13.066Z,21.30
2022-08-28T20:20:39.965Z,21.42
2022-08-28T20:23:07.302Z,21.38
2022-08-28T20:25:34.843Z,21.28
2022-08-28T20:28:02.016Z,21.35
2022-08-28T20:30:28.798Z,21.31
2022-08-28T20:32:55.249Z,21.50
2022-08-28T20:35:22.172Z,21.57
2022-08-28T20:37:51.051Z,21.44
2022-08-28T20:40:19.620Z,21.63
2022-08-28T20:42:46.521Z,21.70
2022-08-28T20:45:14.827Z,21.53
2022-08-28T20:47:41.256Z,21.48
2022-08-28T20:50:07.961Z,21.44
2022-08-28T20:52:34.485Z,21.34
2022-08-28T20:55:00.950Z,21.15
2022-08-28T20:57:27.419Z,20.95
2022-08-28T20:59:54.265Z,20.89
2022-08-28T21:02:23.774Z,20.78
2022-08-28T21:04:51.118Z,20.76
2022-08-28T21:07:19.391Z,20.65
2022-08-28T21:10:07.258Z,20.76
2022-08-28T21:12:32.325Z,20.54
2022-08-28T21:14:58.819Z,20.43
2022-08-28T21:17:29.495Z,20.44
2022-08-28T21:20:00.756Z,20.58
2022-08-28T21:22:27.250Z,20.63
2022-08-28T21:24:53.916Z,20.59
2022-08-28T21:27:20.354Z,20.60
2022-08-28T21:29:47.795Z,20.52
2022-08-28T21:32:14.408Z,20.47
2022-08-28T21:34:40.888Z,20.40
2022-08-28T21:37:07.360Z,20.33
2022-08-28T21:39:34.883Z,20.33
2022-08-28T21:42:01.354Z,20.29
2022-08-28T21:44:27.908Z,20.32
2022-08-28T21:46:54.399Z,20.38
2022-08-28T21:49:22.652Z,20.46
2022-08-28T21:51:49.336Z,20.33
2022-08-28T21:54:15.880Z,20.37
2022-08-28T21:56:42.448Z,20.32
2022-08-28T21:59:09.075Z,20.33
2022-08-28T22:01:35.613Z,20.39
2022-08-28T22:04:02.341Z,20.38
2022-08-28T22:06:28.780Z,20.45
2022-08-28T22:08:56.248Z,20.47
2022-08-28T22:11:24.779Z,20.57
2022-08-28T22:13:52.222Z,20.64
2022-08-28T22:16:19.318Z,20.68
2022-08-28T22:18:45.984Z,20.65
2022-08-28T22:21:33.076Z,20.79
2022-08-28T22:23:59.827Z,20.77
2022-08-28T22:26:26.795Z,20.88
2022-08-28T22:28:53.553Z,20.88
2022-08-28T22:31:20.022Z,20.84
2022-08-28T22:33:46.485Z,20.79
2022-08-28T22:36:13.356Z,20.77
2022-08-28T22:38:40.008Z,20.82
2022-08-28T22:41:06.873Z,20.79
2022-08-28T22:43:33.407Z,20.81
2022-08-28T22:46:00.100Z,20.76
2022-08-28T22:48:26.962Z,20.76
2022-08-28T22:51:08.400Z,20.60
2022-08-28T22:53:35.826Z,20.63
2022-08-28T22:56:02.542Z,20.51
2022-08-28T22:58:31.093Z,20.58
2022-08-28T23:00:59.244Z,20.63
2022-08-28T23:03:25.810Z,20.58
2022-08-28T23:05:52.373Z,20.60
2022-08-28T23:08:19.194Z,20.67
2022-08-28T23:10:58.397Z,20.71
2022-08-28T23:13:25.594Z,20.71
2022-08-28T23:15:52.053Z,20.71
2022-08-28T23:18:18.549Z,20.64
2022-08-28T23:20:45.176Z,20.71
2022-08-28T23:23:12.001Z,20.77
2022-08-28T23:25:38.561Z,20.77
2022-08-28T23:28:06.606Z,20.57
2022-08-28T23:30:33.301Z,20.56
2022-08-28T23:32:59.768Z,20.50
2022-08-28T23:35:26.297Z,20.53
2022-08-28T23:37:52.800Z,20.57
2022-08-28T23:40:21.830Z,20.56
2022-08-28T23:42:48.900Z,20.57
2022-08-28T23:45:17.205Z,20.63
2022-08-28T23:47:44.348Z,20.41
2022-08-28T23:50:15.015Z,20.38
2022-08-28T23:52:41.764Z,20.32
2022-08-28T23:55:10.394Z,20.38
2022-08-28T23:57:36.888Z,20.39
